TCA7766 SVCS-SVBI
Flight info
| Callsign | TCA7766 |
|---|---|
| Flight time | 0h 52m |
| Altitude | 22000 |
| Route | GUTUX1 MASPU W14 VASOT A550 BNS |
| Aircraft | B350/L-SBGRW/S |
Departure
| Time | 2026-05-03 21:26 |
|---|---|
| Airport | Caracas Óscar Machado Zuloaga International Airport (SVCS) |
Arrival
| Time | 2026-05-03 22:18 |
|---|---|
| Airport | Barinas Airport (SVBI) |
| Time | Latitude | Longitude | Altitude | Speed | Heading |
|---|---|---|---|---|---|
| 2026-05-03 21:25 | 10.23495 | -66.79523 | 5239 ft | 219 kts | 228° |
| 2026-05-03 21:26 | 10.22943 | -66.80831 | 6193 ft | 185 kts | 254° |
| 2026-05-03 21:26 | 10.22618 | -66.82144 | 6534 ft | 208 kts | 257° |
| 2026-05-03 21:26 | 10.22295 | -66.83581 | 7175 ft | 202 kts | 247° |
| 2026-05-03 21:26 | 10.21543 | -66.84746 | 7915 ft | 196 kts | 224° |
| 2026-05-03 21:27 | 10.20596 | -66.85738 | 8641 ft | 195 kts | 224° |
| 2026-05-03 21:27 | 10.19688 | -66.86783 | 9266 ft | 202 kts | 227° |
| 2026-05-03 21:27 | 10.18735 | -66.87927 | 9623 ft | 220 kts | 227° |
| 2026-05-03 21:27 | 10.17717 | -66.89146 | 9964 ft | 232 kts | 228° |
| 2026-05-03 21:28 | 10.16660 | -66.90405 | 10293 ft | 242 kts | 227° |
| 2026-05-03 21:28 | 10.15551 | -66.91727 | 10629 ft | 249 kts | 227° |
| 2026-05-03 21:28 | 10.14416 | -66.93077 | 10964 ft | 254 kts | 227° |
| 2026-05-03 21:28 | 10.13255 | -66.94458 | 11307 ft | 258 kts | 227° |
| 2026-05-03 21:29 | 10.12083 | -66.95855 | 11645 ft | 262 kts | 227° |
| 2026-05-03 21:29 | 10.10894 | -66.97272 | 11993 ft | 265 kts | 227° |
| 2026-05-03 21:29 | 10.09703 | -66.98690 | 12332 ft | 268 kts | 227° |
| 2026-05-03 21:29 | 10.08488 | -67.00134 | 12680 ft | 270 kts | 226° |
| 2026-05-03 21:30 | 10.07263 | -67.01591 | 13044 ft | 272 kts | 226° |
| 2026-05-03 21:30 | 10.06032 | -67.03057 | 13388 ft | 274 kts | 226° |
| 2026-05-03 21:30 | 10.04791 | -67.04533 | 13742 ft | 275 kts | 226° |
| 2026-05-03 21:30 | 10.03544 | -67.06016 | 14061 ft | 277 kts | 225° |
| 2026-05-03 21:31 | 10.02290 | -67.07506 | 14373 ft | 277 kts | 226° |
| 2026-05-03 21:31 | 10.01037 | -67.08997 | 14694 ft | 277 kts | 226° |
| 2026-05-03 21:31 | 9.99788 | -67.10484 | 15018 ft | 276 kts | 226° |
| 2026-05-03 21:31 | 9.98535 | -67.11970 | 15337 ft | 276 kts | 226° |
| 2026-05-03 21:32 | 9.97305 | -67.13468 | 15669 ft | 277 kts | 231° |
| 2026-05-03 21:32 | 9.96388 | -67.15174 | 15999 ft | 281 kts | 247° |
| 2026-05-03 21:32 | 9.95958 | -67.17110 | 16344 ft | 283 kts | 265° |
| 2026-05-03 21:33 | 9.96340 | -67.22776 | 17326 ft | 284 kts | 272° |
| 2026-05-03 21:33 | 9.96412 | -67.24780 | 17678 ft | 285 kts | 272° |
| 2026-05-03 21:33 | 9.96497 | -67.26792 | 18034 ft | 285 kts | 273° |
| 2026-05-03 21:34 | 9.96605 | -67.28797 | 18356 ft | 285 kts | 273° |
| 2026-05-03 21:34 | 9.96710 | -67.30773 | 18660 ft | 284 kts | 273° |
| 2026-05-03 21:34 | 9.96808 | -67.32771 | 18971 ft | 283 kts | 273° |
| 2026-05-03 21:34 | 9.96905 | -67.34760 | 19287 ft | 282 kts | 273° |
| 2026-05-03 21:35 | 9.97004 | -67.36736 | 19601 ft | 280 kts | 273° |
| 2026-05-03 21:35 | 9.97103 | -67.38705 | 19924 ft | 279 kts | 273° |
| 2026-05-03 21:35 | 9.97200 | -67.40666 | 20247 ft | 278 kts | 273° |
| 2026-05-03 21:35 | 9.97297 | -67.42615 | 20571 ft | 276 kts | 273° |
| 2026-05-03 21:36 | 9.97393 | -67.44553 | 20902 ft | 274 kts | 273° |
| 2026-05-03 21:36 | 9.97490 | -67.46482 | 21234 ft | 273 kts | 273° |
| 2026-05-03 21:36 | 9.97584 | -67.48402 | 21572 ft | 273 kts | 273° |
| 2026-05-03 21:36 | 9.97678 | -67.50312 | 21913 ft | 272 kts | 273° |
| 2026-05-03 21:37 | 9.97775 | -67.52263 | 21973 ft | 283 kts | 273° |
| 2026-05-03 21:37 | 9.97877 | -67.54292 | 21981 ft | 292 kts | 273° |
| 2026-05-03 21:37 | 9.97980 | -67.56377 | 21986 ft | 299 kts | 273° |
| 2026-05-03 21:37 | 9.98085 | -67.58505 | 21992 ft | 305 kts | 273° |
| 2026-05-03 21:38 | 9.98191 | -67.60668 | 21994 ft | 309 kts | 273° |
| 2026-05-03 21:38 | 9.98298 | -67.62861 | 21994 ft | 313 kts | 273° |
| 2026-05-03 21:38 | 9.98408 | -67.65072 | 21996 ft | 315 kts | 273° |
| 2026-05-03 21:38 | 9.98517 | -67.67302 | 22001 ft | 317 kts | 273° |
| 2026-05-03 21:39 | 9.98626 | -67.69537 | 22001 ft | 318 kts | 273° |
| 2026-05-03 21:39 | 9.98735 | -67.71782 | 22004 ft | 319 kts | 273° |
| 2026-05-03 21:39 | 9.98846 | -67.74034 | 22006 ft | 320 kts | 273° |
| 2026-05-03 21:39 | 9.98955 | -67.76291 | 22009 ft | 321 kts | 273° |
| 2026-05-03 21:40 | 9.99066 | -67.78551 | 22013 ft | 321 kts | 273° |
| 2026-05-03 21:40 | 9.99176 | -67.80813 | 22015 ft | 321 kts | 273° |
| 2026-05-03 21:40 | 9.99285 | -67.83075 | 22015 ft | 321 kts | 273° |
| 2026-05-03 21:40 | 9.99395 | -67.85339 | 22017 ft | 321 kts | 273° |
| 2026-05-03 21:41 | 9.99503 | -67.87572 | 22017 ft | 321 kts | 273° |
| 2026-05-03 21:41 | 9.99611 | -67.89836 | 22022 ft | 321 kts | 273° |
| 2026-05-03 21:41 | 9.99720 | -67.92103 | 22022 ft | 322 kts | 273° |
| 2026-05-03 21:41 | 9.99828 | -67.94366 | 22020 ft | 322 kts | 273° |
| 2026-05-03 21:42 | 9.99936 | -67.96635 | 22019 ft | 322 kts | 273° |
| 2026-05-03 21:42 | 10.00044 | -67.98902 | 22020 ft | 321 kts | 273° |
| 2026-05-03 21:42 | 10.00151 | -68.01169 | 22019 ft | 322 kts | 273° |
| 2026-05-03 21:42 | 10.00259 | -68.03431 | 22020 ft | 321 kts | 273° |
| 2026-05-03 21:43 | 10.00366 | -68.05697 | 22016 ft | 322 kts | 273° |
| 2026-05-03 21:43 | 10.00474 | -68.07962 | 22017 ft | 321 kts | 273° |
| 2026-05-03 21:43 | 10.00581 | -68.10231 | 22014 ft | 322 kts | 273° |
| 2026-05-03 21:43 | 10.00689 | -68.12499 | 22011 ft | 322 kts | 273° |
| 2026-05-03 21:44 | 10.00795 | -68.14767 | 22011 ft | 322 kts | 273° |
| 2026-05-03 21:44 | 10.00901 | -68.17035 | 22011 ft | 322 kts | 273° |
| 2026-05-03 21:44 | 10.01008 | -68.19303 | 22011 ft | 322 kts | 273° |
| 2026-05-03 21:44 | 10.01115 | -68.21569 | 22012 ft | 322 kts | 273° |
| 2026-05-03 21:45 | 10.01221 | -68.23834 | 22010 ft | 321 kts | 273° |
| 2026-05-03 21:45 | 10.01325 | -68.26069 | 22011 ft | 322 kts | 273° |
| 2026-05-03 21:45 | 10.01429 | -68.28339 | 22010 ft | 322 kts | 272° |
| 2026-05-03 21:45 | 10.01531 | -68.30606 | 22014 ft | 322 kts | 272° |
| 2026-05-03 21:46 | 10.01634 | -68.32874 | 22012 ft | 322 kts | 273° |
| 2026-05-03 21:46 | 10.01737 | -68.35139 | 22015 ft | 322 kts | 273° |
| 2026-05-03 21:46 | 10.01840 | -68.37408 | 22017 ft | 322 kts | 272° |
| 2026-05-03 21:46 | 10.01942 | -68.39675 | 22021 ft | 322 kts | 272° |
| 2026-05-03 21:47 | 10.02045 | -68.41944 | 22020 ft | 322 kts | 272° |
| 2026-05-03 21:47 | 10.02148 | -68.44210 | 22020 ft | 322 kts | 272° |
| 2026-05-03 21:47 | 10.02250 | -68.46483 | 22022 ft | 322 kts | 272° |
| 2026-05-03 21:47 | 10.02352 | -68.48750 | 22021 ft | 322 kts | 272° |
| 2026-05-03 21:48 | 10.02453 | -68.51022 | 22020 ft | 322 kts | 272° |
| 2026-05-03 21:48 | 10.02555 | -68.53287 | 22022 ft | 322 kts | 272° |
| 2026-05-03 21:48 | 10.02657 | -68.55554 | 22022 ft | 322 kts | 272° |
| 2026-05-03 21:48 | 10.02758 | -68.57819 | 22021 ft | 321 kts | 272° |
| 2026-05-03 21:49 | 10.02858 | -68.60084 | 22023 ft | 321 kts | 272° |
| 2026-05-03 21:49 | 10.02876 | -68.62350 | 22024 ft | 321 kts | 264° |
| 2026-05-03 21:49 | 10.02426 | -68.64557 | 22027 ft | 320 kts | 251° |
| 2026-05-03 21:49 | 10.01477 | -68.66593 | 22016 ft | 320 kts | 237° |
| 2026-05-03 21:50 | 10.00113 | -68.68370 | 22019 ft | 319 kts | 227° |
| 2026-05-03 21:50 | 9.98626 | -68.70036 | 22017 ft | 318 kts | 227° |
| 2026-05-03 21:50 | 9.97201 | -68.71759 | 22017 ft | 319 kts | 231° |
| 2026-05-03 21:50 | 9.95827 | -68.73529 | 22016 ft | 319 kts | 231° |
| 2026-05-03 21:51 | 9.94436 | -68.75278 | 22011 ft | 319 kts | 230° |
| 2026-05-03 21:51 | 9.93019 | -68.77009 | 22010 ft | 319 kts | 229° |
| 2026-05-03 21:51 | 9.91624 | -68.78724 | 22010 ft | 319 kts | 230° |
| 2026-05-03 21:51 | 9.90219 | -68.80476 | 22009 ft | 319 kts | 230° |
| 2026-05-03 21:52 | 9.88816 | -68.82223 | 22009 ft | 319 kts | 230° |
| 2026-05-03 21:52 | 9.87407 | -68.83966 | 22008 ft | 320 kts | 230° |
| 2026-05-03 21:52 | 9.85997 | -68.85709 | 22014 ft | 320 kts | 230° |
| 2026-05-03 21:52 | 9.84586 | -68.87457 | 22015 ft | 320 kts | 230° |
| 2026-05-03 21:53 | 9.83176 | -68.89206 | 22010 ft | 320 kts | 230° |
| 2026-05-03 21:53 | 9.81769 | -68.90946 | 22004 ft | 319 kts | 230° |
| 2026-05-03 21:53 | 9.80359 | -68.92692 | 22001 ft | 319 kts | 230° |
| 2026-05-03 21:53 | 9.78971 | -68.94414 | 22007 ft | 319 kts | 230° |
| 2026-05-03 21:54 | 9.77544 | -68.96177 | 22004 ft | 319 kts | 230° |
| 2026-05-03 21:54 | 9.76154 | -68.97898 | 22002 ft | 319 kts | 230° |
| 2026-05-03 21:54 | 9.74745 | -68.99641 | 21999 ft | 320 kts | 230° |
| 2026-05-03 21:54 | 9.73336 | -69.01387 | 22006 ft | 320 kts | 230° |
| 2026-05-03 21:55 | 9.71927 | -69.03130 | 22001 ft | 320 kts | 230° |
| 2026-05-03 21:55 | 9.70509 | -69.04881 | 22007 ft | 320 kts | 230° |
| 2026-05-03 21:55 | 9.69101 | -69.06623 | 22001 ft | 320 kts | 230° |
| 2026-05-03 21:55 | 9.67688 | -69.08371 | 22000 ft | 320 kts | 230° |
| 2026-05-03 21:56 | 9.66275 | -69.10121 | 22003 ft | 320 kts | 230° |
| 2026-05-03 21:56 | 9.64861 | -69.11868 | 22002 ft | 320 kts | 230° |
| 2026-05-03 21:56 | 9.63448 | -69.13611 | 22008 ft | 320 kts | 230° |
| 2026-05-03 21:56 | 9.62038 | -69.15356 | 22004 ft | 320 kts | 230° |
| 2026-05-03 21:57 | 9.60646 | -69.17076 | 22004 ft | 320 kts | 230° |
| 2026-05-03 21:57 | 9.59235 | -69.18820 | 22005 ft | 320 kts | 230° |
| 2026-05-03 21:57 | 9.57826 | -69.20561 | 22007 ft | 320 kts | 230° |
| 2026-05-03 21:57 | 9.56412 | -69.22306 | 22003 ft | 319 kts | 230° |
| 2026-05-03 21:58 | 9.54988 | -69.24034 | 22006 ft | 319 kts | 226° |
| 2026-05-03 21:58 | 9.53966 | -69.25105 | 22006 ft | 318 kts | 224° |
| 2026-05-03 21:58 | 9.52385 | -69.26681 | 22006 ft | 318 kts | 223° |
| 2026-05-03 21:58 | 9.50814 | -69.28262 | 22013 ft | 318 kts | 224° |
| 2026-05-03 21:59 | 9.49260 | -69.29863 | 22010 ft | 318 kts | 225° |
| 2026-05-03 21:59 | 9.47195 | -69.31978 | 22017 ft | 318 kts | 224° |
| 2026-05-03 21:59 | 9.46138 | -69.33053 | 22018 ft | 318 kts | 224° |
| 2026-05-03 21:59 | 9.44577 | -69.34643 | 22015 ft | 318 kts | 224° |
| 2026-05-03 22:00 | 9.43020 | -69.36232 | 22008 ft | 318 kts | 224° |
| 2026-05-03 22:00 | 9.41463 | -69.37821 | 22011 ft | 318 kts | 224° |
| 2026-05-03 22:00 | 9.39902 | -69.39412 | 22015 ft | 318 kts | 224° |
| 2026-05-03 22:00 | 9.38364 | -69.40981 | 22010 ft | 318 kts | 224° |
| 2026-05-03 22:01 | 9.36801 | -69.42576 | 22013 ft | 318 kts | 224° |
| 2026-05-03 22:01 | 9.35245 | -69.44167 | 22017 ft | 318 kts | 224° |
| 2026-05-03 22:01 | 9.33684 | -69.45761 | 22019 ft | 318 kts | 224° |
| 2026-05-03 22:01 | 9.32126 | -69.47352 | 22011 ft | 318 kts | 224° |
| 2026-05-03 22:02 | 9.30565 | -69.48945 | 22011 ft | 318 kts | 224° |
| 2026-05-03 22:02 | 9.29008 | -69.50534 | 22011 ft | 318 kts | 224° |
| 2026-05-03 22:02 | 9.27450 | -69.52126 | 22009 ft | 318 kts | 224° |
| 2026-05-03 22:02 | 9.25888 | -69.53721 | 22005 ft | 318 kts | 224° |
| 2026-05-03 22:03 | 9.24326 | -69.55312 | 22017 ft | 318 kts | 224° |
| 2026-05-03 22:03 | 9.22765 | -69.56905 | 22011 ft | 318 kts | 224° |
| 2026-05-03 22:03 | 9.21204 | -69.58499 | 22011 ft | 318 kts | 224° |
| 2026-05-03 22:03 | 9.19663 | -69.60070 | 22009 ft | 319 kts | 224° |
| 2026-05-03 22:04 | 9.18102 | -69.61662 | 21999 ft | 319 kts | 224° |
| 2026-05-03 22:04 | 9.16539 | -69.63255 | 21998 ft | 319 kts | 224° |
| 2026-05-03 22:04 | 9.14977 | -69.64848 | 22000 ft | 319 kts | 224° |
| 2026-05-03 22:04 | 9.13415 | -69.66441 | 22003 ft | 319 kts | 224° |
| 2026-05-03 22:05 | 9.11851 | -69.68035 | 22002 ft | 319 kts | 224° |
| 2026-05-03 22:05 | 9.10290 | -69.69626 | 22002 ft | 319 kts | 224° |
| 2026-05-03 22:05 | 9.08728 | -69.71218 | 22006 ft | 319 kts | 224° |
| 2026-05-03 22:05 | 9.07164 | -69.72811 | 22002 ft | 319 kts | 224° |
| 2026-05-03 22:06 | 9.05600 | -69.74404 | 22001 ft | 319 kts | 224° |
| 2026-05-03 22:06 | 9.04037 | -69.75998 | 21960 ft | 320 kts | 224° |
| 2026-05-03 22:06 | 9.02437 | -69.77627 | 21538 ft | 331 kts | 224° |
| 2026-05-03 22:06 | 9.00800 | -69.79295 | 21132 ft | 336 kts | 224° |
| 2026-05-03 22:07 | 8.99144 | -69.80982 | 20735 ft | 340 kts | 224° |
| 2026-05-03 22:07 | 8.97467 | -69.82688 | 20338 ft | 343 kts | 223° |
| 2026-05-03 22:07 | 8.95795 | -69.84393 | 19801 ft | 345 kts | 223° |
| 2026-05-03 22:07 | 8.94110 | -69.86109 | 19255 ft | 343 kts | 223° |
| 2026-05-03 22:08 | 8.92453 | -69.87796 | 18731 ft | 329 kts | 222° |
| 2026-05-03 22:08 | 8.90870 | -69.89407 | 18191 ft | 315 kts | 221° |
| 2026-05-03 22:08 | 8.89347 | -69.90950 | 17582 ft | 304 kts | 221° |
| 2026-05-03 22:08 | 8.87735 | -69.92260 | 16976 ft | 291 kts | 207° |
| 2026-05-03 22:09 | 8.85932 | -69.93081 | 16389 ft | 279 kts | 192° |
| 2026-05-03 22:09 | 8.84064 | -69.93478 | 15809 ft | 271 kts | 186° |
| 2026-05-03 22:09 | 8.82236 | -69.93817 | 15245 ft | 268 kts | 187° |
| 2026-05-03 22:10 | 8.78629 | -69.94562 | 14138 ft | 262 kts | 188° |
| 2026-05-03 22:10 | 8.76828 | -69.94927 | 13571 ft | 259 kts | 188° |
| 2026-05-03 22:10 | 8.75087 | -69.95277 | 12978 ft | 257 kts | 188° |
| 2026-05-03 22:10 | 8.73336 | -69.95632 | 12378 ft | 256 kts | 188° |
| 2026-05-03 22:11 | 8.71597 | -69.95986 | 11781 ft | 254 kts | 188° |
| 2026-05-03 22:11 | 8.69843 | -69.96340 | 10974 ft | 260 kts | 189° |
| 2026-05-03 22:11 | 8.68059 | -69.96702 | 10195 ft | 262 kts | 189° |
| 2026-05-03 22:11 | 8.66265 | -69.97067 | 9392 ft | 264 kts | 189° |
| 2026-05-03 22:12 | 8.64465 | -69.97432 | 8555 ft | 264 kts | 189° |
| 2026-05-03 22:12 | 8.62667 | -69.97796 | 7688 ft | 264 kts | 190° |
| 2026-05-03 22:12 | 8.60847 | -69.98167 | 6718 ft | 268 kts | 190° |
| 2026-05-03 22:12 | 8.59016 | -69.98575 | 5730 ft | 271 kts | 197° |
| 2026-05-03 22:13 | 8.57350 | -69.99452 | 4753 ft | 272 kts | 216° |
| 2026-05-03 22:13 | 8.55978 | -70.00758 | 3754 ft | 271 kts | 232° |
| 2026-05-03 22:13 | 8.55038 | -70.02399 | 2764 ft | 269 kts | 249° |
| 2026-05-03 22:13 | 8.54595 | -70.04208 | 2119 ft | 254 kts | 261° |
| 2026-05-03 22:14 | 8.54285 | -70.05839 | 2104 ft | 221 kts | 257° |
| 2026-05-03 22:14 | 8.53970 | -70.07246 | 2092 ft | 196 kts | 258° |
| 2026-05-03 22:14 | 8.53788 | -70.08536 | 2085 ft | 176 kts | 274° |
| 2026-05-03 22:14 | 8.54024 | -70.09659 | 2091 ft | 152 kts | 293° |
| 2026-05-03 22:15 | 8.54500 | -70.10520 | 2087 ft | 134 kts | 306° |
| 2026-05-03 22:15 | 8.55016 | -70.11316 | 2101 ft | 137 kts | 304° |
| 2026-05-03 22:15 | 8.55534 | -70.12129 | 2094 ft | 138 kts | 306° |
| 2026-05-03 22:15 | 8.56062 | -70.12947 | 2098 ft | 138 kts | 304° |
| 2026-05-03 22:16 | 8.56558 | -70.13718 | 2097 ft | 125 kts | 306° |
| 2026-05-03 22:16 | 8.57032 | -70.14446 | 2001 ft | 125 kts | 304° |
| 2026-05-03 22:16 | 8.57520 | -70.15199 | 1840 ft | 131 kts | 304° |
| 2026-05-03 22:16 | 8.58023 | -70.15990 | 1684 ft | 135 kts | 304° |
| 2026-05-03 22:17 | 8.58515 | -70.16818 | 1482 ft | 139 kts | 302° |
| 2026-05-03 22:17 | 8.59030 | -70.17635 | 1292 ft | 139 kts | 308° |
| 2026-05-03 22:17 | 8.59583 | -70.18423 | 1141 ft | 135 kts | 307° |
| 2026-05-03 22:17 | 8.60100 | -70.19210 | 967 ft | 133 kts | 305° |
| 2026-05-03 22:18 | 8.60596 | -70.20002 | 777 ft | 132 kts | 305° |
| 2026-05-03 22:18 | 8.61098 | -70.20768 | 636 ft | 126 kts | 304° |
| 2026-05-03 22:18 | 8.61459 | -70.21316 | 622 ft | 55 kts | 302° |
| 2026-05-03 22:18 | 8.61630 | -70.21587 | 622 ft | 45 kts | 302° |
| 2026-05-03 22:19 | 8.61794 | -70.21835 | 627 ft | 39 kts | 298° |
| 2026-05-03 22:19 | 8.61898 | -70.22010 | 626 ft | 19 kts | 304° |
| 2026-05-03 22:19 | 8.61970 | -70.22085 | 633 ft | 12 kts | 354° |
| 2026-05-03 22:19 | 8.62040 | -70.22057 | 629 ft | 10 kts | 31° |
| 2026-05-03 22:20 | 8.62097 | -70.22031 | 636 ft | 8 kts | 353° |
| 2026-05-03 22:20 | 8.62154 | -70.22023 | 633 ft | 9 kts | 39° |
| 2026-05-03 22:20 | 8.62209 | -70.21983 | 629 ft | 8 kts | 35° |
| 2026-05-03 22:20 | 8.62227 | -70.21981 | 629 ft | 3 kts | 306° |
| 2026-05-03 22:21 | 8.62226 | -70.21999 | 628 ft | 3 kts | 204° |
| 2026-05-03 22:21 | 8.62221 | -70.22002 | 628 ft | 0 kts | 212° |